Norfolk, Massachusetts
Current Conditions -  °F | °C
As of 11:53 AM on Friday 21 Nov 2014 (Local Time) from KOWD Reporting Station
Scattered Clouds Scattered Clouds  
Wind Chill: 23°   Ceiling: Unl
Heat Index: 34°   Visibility: 10mi
Dew Point:   Wind: 17mph
Humidity: 35%   Direction: 280°W
Pressure: 30.12"   Gusts: 28mph
Location:  42.12°N, 71.32°W
Report Text: KOWD 211653Z 28015G24KT 10SM SCT055 01/M13 A3012 RMK AO2 SLP200 T00111128
Loading
Personal Weather Stations






























Interactive Weather Map New forecast layout! Learn more

10-Day Weather Forecast

Advertisements
Track Severe Weather on mobile